New York, NY

Saat: 05:28 PM EDT Tarih: 21 Ekim 2014 (GMT -0400)
Murray Hill | Change Station
CLOSE
Current Station
Kişisel Havadurumu İstasyonları
Location: New York, NY
Yükseklik: 98 ft
Nearby Weather Stations

Elev 98 ft 40.75 °N, 73.98 °W | Updated 3 seconds ago

Mostly Cloudy
Çok Bulutlu
62.6
Feels Like 62.6
N
4.0
Rüzgar Değişken Rüzgar from Güney
Gusts 9.0 mil

Bugün
High -- | Low -- F°
--% Chance of Precip.
Dün
High -- | Low -- F°
Precip. -- inç
7:13 AM 6:06 PM
Hilal, 4% visible
Basınç 29.85 inç
Görüş Uzaklığı 10.0 mil
Bulutlar Çok Bulutlu 2700 ft
Çiğ noktası 55
Nem oranı 76%
Yağış 0.00 inç
Kar Kalınlığı Not available.
0 out of 12
Pollen .70 out of 12
PM2.5 Temiz
Flu Activity Sporadic
SPECI KNYC 212059Z AUTO 00000KT 10SM BKN027 18/11 A2985 RMK AO2 T01830111 $

More Conditions Fewer Conditions

Basınç 29.85 inç
Görüş Uzaklığı 10.0 mil
Bulutlar Çok Bulutlu 2700 ft
Çiğ noktası 55
Nem oranı 76%
Yağış 0.00 inç
Kar Kalınlığı Not available.
0 out of 12
Pollen .70 out of 12
PM2.5 Temiz
Flu Activity Sporadic
SPECI KNYC 212059Z AUTO 00000KT 10SM BKN027 18/11 A2985 RMK AO2 T01830111 $

More Conditions Fewer Conditions

10-Day Weather Forecast

Almanac

Gökbilim

Oct. 21, 2014 Rise Set
Gerçek Zaman 07:13 EDT 18:06 EDT
Günlük Tan 06:45 EDT 18:34 EDT
Deniz Tanı 06:13 EDT 19:06 EDT
Geceyarısı Yıldız Zamanı 05:42 EDT 19:38 EDT
Ay 04:54 EDT 17:00 EDT
Görünür Işığın Uzunluğu 11h 48m
Günün Uzunluğu
10h 53m
Tomorrow will be 2m 32s shorter.
Hilal, 4% of the Moon is Illuminated
Bugün
Hilal
Oct 23
New
Oct 30
İlk Hilãl
Nov 6
Dolunay
Nov 14
Son Hilãl

Günün En Yüksekleri

State Highs State Lows

Community

WunderPhotos

Upload Photos

1,763,779 photos uploaded!

Nearby

Hava Kalitesi

  Hava Kalitesi Hava Kalitesi Endeksi Kirletici
Dün Temiz
OZONE
Dün Temiz
PM2.5
Şu anda Temiz
PM2.5
Salı Temiz
PM2.5
Çarşamba Temiz
PM2.5

Kar Kalınlığı

Station Depth Yükseklik
No new snow has been reported.

Earthquake Activity

Şehir Distance Mag. Time & Date
No recent earthquake activity has been reported nearby.
Minimum magnitude displayed is 2.5.

Coastal Water Temperatures

Yer Sıcaklık
Sandy Hook, NJ 61.0 F°
The Battery, NY 64.0 F°
Bergen Point West Reach, NJ 63.0 F°

Nearby Weather Stations